Time;durP1;ratioP1;P1;durP2;ratioP2;P2;SDS_P1;SDS_P2;PMS_P1;PMS_P2;Temp;Humidity;BMP_temperature;BMP_pressure;BME280_temperature;BME280_humidity;BME280_pressure;Samples;Min_cycle;Max_cycle;Signal;HPM_P1;HPM_P2
2020/12/31 00:01:23;;;;;;;;;;;;;;;3.68;76.83;97308.08;1657702;84;22222;-86
2020/12/31 00:04:14;;;;;;;;;;;;;;;3.79;76.83;97302.63;1662071;85;39021;-86
2020/12/31 00:07:00;;;;;;;;;;;;;;;3.85;76.83;97305.77;1655830;85;25636;-86
2020/12/31 00:09:46;;;;;;;;;;;;;;;3.86;76.85;97306.14;1659851;85;20573;-86
2020/12/31 00:12:32;;;;;;;;;;;;;;;3.69;76.87;97309.74;1658712;85;24764;-86
2020/12/31 00:15:18;;;;;;;;;;;;;;;3.58;76.87;97313.44;1662072;85;22132;-86
2020/12/31 00:18:04;;;;;;;;;;;;;;;3.61;76.82;97310.19;1654506;85;26203;-86
2020/12/31 00:20:50;;;;;;;;;;;;;;;3.63;76.77;97307.52;1656024;85;25729;-87
2020/12/31 00:23:36;;;;;;;;;;;;;;;3.64;76.72;97307.90;1660473;85;20717;-86
2020/12/31 00:26:22;;;;;;;;;;;;;;;3.68;76.68;97310.66;1653625;85;24877;-87
2020/12/31 00:29:08;;;;;;;;;;;;;;;3.66;76.64;97310.74;1652025;85;22118;-87
2020/12/31 00:31:54;;;;;;;;;;;;;;;3.47;76.61;97311.95;1657677;84;26132;-87
2020/12/31 00:34:42;;;;;;;;;;;;;;;3.39;76.57;97313.69;1675482;85;24065;-87
2020/12/31 00:37:27;;;;;;;;;;;;;;;3.24;76.53;97315.42;1718448;82;20328;-87
2020/12/31 00:40:02;;;;;;;;;;;;;;;2.98;76.49;97311.39;1712672;82;24958;-87
2020/12/31 00:42:47;;;;;;;;;;;;;;;2.56;76.46;97318.53;1711873;82;22296;-86
2020/12/31 00:45:34;;;;;;;;;;;;;;;2.19;76.37;97317.12;1714198;82;26976;-86
2020/12/31 00:48:25;;;;;;;;;;;;;;;1.99;76.27;97321.62;1679269;84;24683;-86
2020/12/31 00:51:11;;;;;;;;;;;;;;;1.93;76.18;97319.36;1708459;82;20281;-87
2020/12/31 00:53:58;;;;;;;;;;;;;;;1.90;76.12;97321.28;1711127;83;25875;-86
2020/12/31 00:56:44;;;;;;;;;;;;;;;1.81;76.09;97320.00;1709008;82;22242;-86
2020/12/31 00:59:30;;;;;;;;;;;;;;;1.85;76.07;97322.81;1706861;83;26284;-86
2020/12/31 01:02:16;;;;;;;;;;;;;;;2.04;76.06;97323.49;1710706;83;24710;-86
2020/12/31 01:05:03;;;;;;;;;;;;;;;2.20;76.07;97318.78;1710112;82;20329;-86
2020/12/31 01:07:49;;;;;;;;;;;;;;;2.31;76.10;97318.58;1710885;83;24878;-86
2020/12/31 01:10:36;;;;;;;;;;;;;;;2.45;76.14;97320.42;1710847;83;22378;-86
2020/12/31 01:13:22;;;;;;;;;;;;;;;2.53;76.16;97328.56;1710923;83;26124;-86
2020/12/31 01:16:08;;;;;;;;;;;;;;;2.40;76.21;97332.27;1713375;82;24644;-86
2020/12/31 01:18:54;;;;;;;;;;;;;;;2.28;76.22;97328.25;1708279;83;20506;-86
2020/12/31 01:21:40;;;;;;;;;;;;;;;2.27;76.26;97330.45;1710095;82;24970;-86
2020/12/31 01:24:28;;;;;;;;;;;;;;;2.32;76.25;97320.70;1708441;82;22476;-87
2020/12/31 01:27:14;;;;;;;;;;;;;;;2.55;76.26;97336.23;1711021;82;27155;-86
2020/12/31 01:30:02;;;;;;;;;;;;;;;2.62;76.29;97344.83;1710226;82;24636;-86
2020/12/31 01:32:48;;;;;;;;;;;;;;;2.53;76.36;97345.34;1748100;80;20513;-86
2020/12/31 01:35:35;;;;;;;;;;;;;;;2.41;76.38;97348.14;1751913;80;25749;-86
2020/12/31 01:38:21;;;;;;;;;;;;;;;2.38;76.40;97346.19;1748945;81;23168;-86
2020/12/31 01:41:07;;;;;;;;;;;;;;;2.32;76.42;97358.14;1749686;80;26967;-86
2020/12/31 01:43:53;;;;;;;;;;;;;;;2.21;76.44;97352.72;1742450;81;24853;-86
2020/12/31 01:46:40;;;;;;;;;;;;;;;2.04;76.45;97353.62;1751809;81;20311;-86
2020/12/31 01:49:26;;;;;;;;;;;;;;;1.93;76.46;97343.87;1694930;84;25070;-86
2020/12/31 01:52:12;;;;;;;;;;;;;;;1.80;76.47;97351.05;1689815;84;22139;-86
2020/12/31 01:54:58;;;;;;;;;;;;;;;1.69;76.46;97349.03;1681019;84;26317;-87
2020/12/31 01:57:44;;;;;;;;;;;;;;;1.72;76.46;97368.20;1662691;85;25522;-86
2020/12/31 02:00:30;;;;;;;;;;;;;;;1.68;76.49;97370.12;1675357;85;20614;-86
2020/12/31 02:03:16;;;;;;;;;;;;;;;1.67;76.53;97372.31;1678519;84;24985;-88
2020/12/31 02:06:05;;;;;;;;;;;;;;;1.68;76.56;97369.28;1650596;86;22284;-87
2020/12/31 02:08:51;;;;;;;;;;;;;;;1.66;76.61;97365.48;1691759;83;26171;-86
2020/12/31 02:11:37;;;;;;;;;;;;;;;1.63;76.66;97365.66;1676401;85;25171;-87
2020/12/31 02:14:23;;;;;;;;;;;;;;;1.60;76.73;97372.69;1705386;84;20325;-88
2020/12/31 02:17:09;;;;;;;;;;;;;;;1.70;76.74;97380.33;1706905;84;24904;-88
2020/12/31 02:19:57;;;;;;;;;;;;;;;1.85;76.82;97383.44;1706866;84;22940;-87
2020/12/31 02:22:43;;;;;;;;;;;;;;;1.84;76.89;97381.77;1706914;84;26197;-87
2020/12/31 02:25:29;;;;;;;;;;;;;;;1.89;76.94;97377.20;1707447;82;24014;-88
2020/12/31 02:28:16;;;;;;;;;;;;;;;1.98;76.99;97384.45;1706536;84;20288;-87
2020/12/31 02:31:02;;;;;;;;;;;;;;;2.05;77.06;97380.64;1706746;84;25160;-88
2020/12/31 02:33:48;;;;;;;;;;;;;;;2.07;77.10;97381.38;1708469;82;22174;-88
2020/12/31 02:36:38;;;;;;;;;;;;;;;2.12;77.17;97382.90;1751214;81;27040;-88
2020/12/31 02:39:25;;;;;;;;;;;;;;;2.09;77.21;97378.72;1750114;81;24635;-87
2020/12/31 02:42:16;;;;;;;;;;;;;;;2.02;77.25;97383.36;1750408;81;20308;-88
2020/12/31 02:45:02;;;;;;;;;;;;;;;2.03;77.28;97386.33;1749476;81;24893;-88
2020/12/31 02:47:49;;;;;;;;;;;;;;;2.05;77.29;97387.55;1691279;84;22138;-88
2020/12/31 02:50:35;;;;;;;;;;;;;;;2.04;77.32;97385.87;1750664;81;26010;-89
2020/12/31 02:53:21;;;;;;;;;;;;;;;2.09;77.34;97387.75;1752395;81;24662;-88
2020/12/31 02:55:55;;;;;;;;;;;;;;;2.17;77.37;97388.19;1752296;81;20260;-88
2020/12/31 02:58:41;;;;;;;;;;;;;;;2.36;77.39;97396.61;1744010;81;25116;-88
2020/12/31 03:01:27;;;;;;;;;;;;;;;2.57;77.41;97395.90;1744236;81;22904;-88
2020/12/31 03:04:13;;;;;;;;;;;;;;;2.64;77.45;97390.78;1749970;80;26118;-88
2020/12/31 03:06:59;;;;;;;;;;;;;;;2.65;77.52;97385.16;1752798;81;24867;-88
2020/12/31 03:09:51;;;;;;;;;;;;;;;2.67;77.55;97377.72;1747420;81;20328;-88
2020/12/31 03:12:37;;;;;;;;;;;;;;;2.52;77.58;97378.53;1690988;83;24914;-88
2020/12/31 03:15:24;;;;;;;;;;;;;;;2.38;77.60;97390.08;1691233;83;21531;-87
2020/12/31 03:18:10;;;;;;;;;;;;;;;2.33;77.57;97394.66;1688152;84;26567;-88
2020/12/31 03:20:59;;;;;;;;;;;;;;;2.34;77.54;97392.00;1674725;85;24664;-87
2020/12/31 03:23:45;;;;;;;;;;;;;;;2.33;77.53;97392.08;1696577;84;20273;-88
2020/12/31 03:26:34;;;;;;;;;;;;;;;2.15;77.52;97385.30;1751274;81;25128;-87
2020/12/31 03:29:20;;;;;;;;;;;;;;;1.92;77.50;97400.23;1690691;84;23159;-87
2020/12/31 03:32:06;;;;;;;;;;;;;;;1.68;77.48;97397.65;1694212;82;26130;-87
2020/12/31 03:34:52;;;;;;;;;;;;;;;1.52;77.43;97397.59;1672322;84;25729;-87
2020/12/31 03:37:39;;;;;;;;;;;;;;;1.47;77.38;97390.55;1753071;81;20330;-88
2020/12/31 03:40:25;;;;;;;;;;;;;;;1.43;77.36;97383.86;1753891;81;24918;-88
2020/12/31 03:43:11;;;;;;;;;;;;;;;1.37;77.37;97389.77;1755693;81;22216;-87
2020/12/31 03:45:58;;;;;;;;;;;;;;;1.36;77.36;97390.70;1745442;81;26021;-88
2020/12/31 03:48:44;;;;;;;;;;;;;;;1.39;77.37;97404.71;1753477;81;24626;-87
2020/12/31 03:51:30;;;;;;;;;;;;;;;1.41;77.40;97408.06;1752221;81;20264;-87
2020/12/31 03:54:16;;;;;;;;;;;;;;;1.49;77.44;97411.07;1751596;81;24836;-88
2020/12/31 03:57:06;;;;;;;;;;;;;;;1.62;77.46;97406.53;1755344;81;22988;-87
2020/12/31 03:59:52;;;;;;;;;;;;;;;1.78;77.52;97401.42;1755120;81;26531;-87
2020/12/31 04:02:42;;;;;;;;;;;;;;;1.85;77.58;97405.81;1752292;81;25448;-87
2020/12/31 04:05:28;;;;;;;;;;;;;;;1.87;77.67;97416.41;1754216;81;20266;-88
2020/12/31 04:08:13;;;;;;;;;;;;;;;1.80;77.73;97403.44;1752824;81;25700;-88
2020/12/31 04:10:59;;;;;;;;;;;;;;;1.92;77.74;97411.02;1753625;81;22363;-87
2020/12/31 04:13:46;;;;;;;;;;;;;;;1.91;77.79;97407.59;1701899;83;26988;-87
2020/12/31 04:16:32;;;;;;;;;;;;;;;1.87;77.81;97400.09;1710431;83;24781;-87
2020/12/31 04:19:18;;;;;;;;;;;;;;;1.83;77.84;97409.75;1755970;81;20256;-87
2020/12/31 04:22:04;;;;;;;;;;;;;;;1.80;77.86;97409.89;1757935;81;24940;-88
2020/12/31 04:24:50;;;;;;;;;;;;;;;1.80;77.88;97405.22;1751684;81;22205;-88
2020/12/31 04:27:37;;;;;;;;;;;;;;;1.75;77.90;97402.02;1700676;83;26131;-88
2020/12/31 04:30:23;;;;;;;;;;;;;;;1.74;77.91;97410.23;1700251;82;24645;-88
2020/12/31 04:33:10;;;;;;;;;;;;;;;1.77;77.91;97410.06;1708621;83;20492;-87
2020/12/31 04:35:55;;;;;;;;;;;;;;;1.80;77.94;97409.89;1700600;83;24913;-88
2020/12/31 04:38:45;;;;;;;;;;;;;;;1.73;77.96;97412.43;1669425;85;22910;-87
2020/12/31 04:41:32;;;;;;;;;;;;;;;1.69;77.98;97412.22;1702789;83;26324;-87
2020/12/31 04:44:08;;;;;;;;;;;;;;;1.75;78.00;97417.48;1677421;84;25023;-88
2020/12/31 04:46:56;;;;;;;;;;;;;;;1.79;78.01;97415.16;1691278;84;20389;-88
2020/12/31 04:49:42;;;;;;;;;;;;;;;1.90;78.04;97422.72;1691986;84;24919;-87
2020/12/31 04:52:16;;;;;;;;;;;;;;;1.94;78.08;97429.38;1694992;84;22161;-88
2020/12/31 04:54:49;;;;;;;;;;;;;;;1.98;78.10;97427.02;1692698;84;26958;-87
2020/12/31 04:57:35;;;;;;;;;;;;;;;2.00;78.16;97427.78;1693916;84;24593;-88
2020/12/31 05:00:21;;;;;;;;;;;;;;;2.02;78.19;97431.09;1692925;84;20267;-88
2020/12/31 05:03:07;;;;;;;;;;;;;;;2.15;78.21;97419.69;1694328;84;25120;-88
2020/12/31 05:05:54;;;;;;;;;;;;;;;2.23;78.24;97414.97;1692478;84;22120;-88
2020/12/31 05:08:40;;;;;;;;;;;;;;;2.24;78.29;97423.52;1693106;84;26139;-88
2020/12/31 05:11:26;;;;;;;;;;;;;;;2.28;78.31;97428.92;1691738;84;24674;-88
2020/12/31 05:14:12;;;;;;;;;;;;;;;2.47;78.31;97417.52;1693039;84;20273;-88
2020/12/31 05:16:58;;;;;;;;;;;;;;;2.59;78.34;97418.61;1693078;84;24921;-88
2020/12/31 05:19:45;;;;;;;;;;;;;;;2.60;78.37;97416.41;1692435;84;22167;-88
2020/12/31 05:22:30;;;;;;;;;;;;;;;2.51;78.40;97428.51;1689853;84;26287;-88
2020/12/31 05:25:16;;;;;;;;;;;;;;;2.52;78.41;97421.14;1693819;84;24701;-88
2020/12/31 05:28:02;;;;;;;;;;;;;;;2.59;78.43;97419.91;1696987;84;20687;-88
2020/12/31 05:30:48;;;;;;;;;;;;;;;2.51;78.44;97421.59;1694212;84;25048;-88
2020/12/31 05:33:35;;;;;;;;;;;;;;;2.41;78.43;97422.17;1691744;84;21958;-88
2020/12/31 05:36:21;;;;;;;;;;;;;;;2.24;78.44;97433.39;1692629;84;26448;-88
2020/12/31 05:39:10;;;;;;;;;;;;;;;2.19;78.41;97434.55;1694492;84;24625;-89
2020/12/31 05:41:55;;;;;;;;;;;;;;;2.28;78.37;97427.17;1695253;84;20269;-88
2020/12/31 05:44:41;;;;;;;;;;;;;;;2.27;78.36;97426.80;1697686;84;25025;-88
2020/12/31 05:47:27;;;;;;;;;;;;;;;2.16;78.37;97425.23;1691366;84;22154;-88
2020/12/31 05:50:13;;;;;;;;;;;;;;;2.05;78.37;97430.12;1696288;84;26159;-88
2020/12/31 05:52:59;;;;;;;;;;;;;;;1.93;78.37;97430.74;1694597;84;24843;-88
2020/12/31 05:55:45;;;;;;;;;;;;;;;1.91;78.35;97429.52;1694661;84;20318;-88
2020/12/31 05:58:20;;;;;;;;;;;;;;;1.87;78.35;97429.31;1692711;84;24958;-89
2020/12/31 06:01:09;;;;;;;;;;;;;;;1.85;78.34;97431.16;1693347;82;22208;-88
2020/12/31 06:03:55;;;;;;;;;;;;;;;2.06;78.31;97430.05;1693017;84;26217;-88
2020/12/31 06:06:41;;;;;;;;;;;;;;;2.14;78.34;97428.34;1697778;84;24593;-88
2020/12/31 06:09:26;;;;;;;;;;;;;;;2.04;78.36;97427.99;1697367;84;20337;-88
2020/12/31 06:12:12;;;;;;;;;;;;;;;1.98;78.37;97434.75;1697134;84;24918;-88
2020/12/31 06:14:58;;;;;;;;;;;;;;;1.96;78.37;97447.37;1697860;83;22969;-88
2020/12/31 06:17:46;;;;;;;;;;;;;;;2.05;78.37;97441.73;1695517;84;27216;-88
2020/12/31 06:20:32;;;;;;;;;;;;;;;2.14;78.37;97446.86;1694369;84;24742;-88
2020/12/31 06:23:18;;;;;;;;;;;;;;;2.15;78.40;97442.08;1696689;84;20274;-88
2020/12/31 06:26:04;;;;;;;;;;;;;;;2.16;78.43;97443.75;1692256;84;25086;-88
2020/12/31 06:28:50;;;;;;;;;;;;;;;2.11;78.45;97445.28;1698227;84;22173;-87
2020/12/31 06:31:36;;;;;;;;;;;;;;;2.04;78.47;97447.80;1693282;84;26147;-88
2020/12/31 06:34:23;;;;;;;;;;;;;;;2.03;78.48;97449.99;1692573;84;24789;-87
2020/12/31 06:37:09;;;;;;;;;;;;;;;2.02;78.46;97450.45;1678755;85;20462;-88
2020/12/31 06:39:55;;;;;;;;;;;;;;;2.18;78.45;97456.13;1671132;85;25830;-88
2020/12/31 06:42:41;;;;;;;;;;;;;;;2.29;78.45;97451.24;1748745;81;23045;-87
2020/12/31 06:45:27;;;;;;;;;;;;;;;2.24;78.46;97450.16;1752272;81;26295;-88
2020/12/31 06:48:13;;;;;;;;;;;;;;;2.20;78.46;97452.99;1752518;81;24643;-88
2020/12/31 06:51:00;;;;;;;;;;;;;;;2.19;78.44;97451.31;1698180;83;20387;-89
2020/12/31 06:53:45;;;;;;;;;;;;;;;2.22;78.44;97461.05;1671150;85;25748;-88
2020/12/31 06:56:35;;;;;;;;;;;;;;;2.26;78.42;97456.55;1675541;84;22115;-88
2020/12/31 06:59:21;;;;;;;;;;;;;;;2.27;78.40;97460.80;1672056;85;26135;-88
2020/12/31 07:02:08;;;;;;;;;;;;;;;2.12;78.38;97459.03;1749979;81;25649;-87
2020/12/31 07:04:54;;;;;;;;;;;;;;;1.98;78.37;97464.42;1751135;81;20276;-88
2020/12/31 07:07:41;;;;;;;;;;;;;;;1.78;78.37;97463.32;1690601;84;24925;-89
2020/12/31 07:10:27;;;;;;;;;;;;;;;1.61;78.32;97458.16;1751028;81;22439;-88
2020/12/31 07:13:13;;;;;;;;;;;;;;;1.49;78.30;97463.92;1753806;81;26131;-88
2020/12/31 07:15:59;;;;;;;;;;;;;;;1.46;78.26;97465.38;1751777;81;24574;-88
2020/12/31 07:18:45;;;;;;;;;;;;;;;1.38;78.22;97459.74;1749471;81;20389;-87
2020/12/31 07:21:31;;;;;;;;;;;;;;;1.39;78.19;97457.55;1751126;80;25753;-88
2020/12/31 07:24:16;;;;;;;;;;;;;;;1.41;78.18;97459.61;1752492;81;22145;-87
2020/12/31 07:27:03;;;;;;;;;;;;;;;1.40;78.19;97460.06;1750306;81;27052;-88
2020/12/31 07:29:49;;;;;;;;;;;;;;;1.44;78.20;97457.70;1701894;83;24512;-88
2020/12/31 07:32:37;;;;;;;;;;;;;;;1.52;78.21;97456.05;1687580;84;20405;-88
2020/12/31 07:35:23;;;;;;;;;;;;;;;1.52;78.23;97453.48;1704715;83;24770;-88
2020/12/31 07:38:09;;;;;;;;;;;;;;;1.54;78.26;97447.77;1750938;81;23039;-88
2020/12/31 07:40:55;;;;;;;;;;;;;;;1.58;78.28;97450.59;1753480;80;26941;-89
2020/12/31 07:43:43;;;;;;;;;;;;;;;1.65;78.30;97448.07;1751476;81;20211;-89
2020/12/31 07:46:35;;;;;;;;;;;;;;;1.67;78.33;97450.97;1752843;81;20454;-88
2020/12/31 07:49:21;;;;;;;;;;;;;;;1.73;78.34;97452.86;1752217;81;24872;-88
2020/12/31 07:52:07;;;;;;;;;;;;;;;1.86;78.37;97455.17;1745751;81;22120;-88
2020/12/31 07:54:53;;;;;;;;;;;;;;;2.01;78.40;97460.88;1752004;81;26253;-88
2020/12/31 07:57:39;;;;;;;;;;;;;;;2.18;78.42;97469.03;1748963;81;24681;-88
2020/12/31 08:00:25;;;;;;;;;;;;;;;2.21;78.43;97471.45;1756647;81;20443;-87
2020/12/31 08:03:11;;;;;;;;;;;;;;;2.19;78.46;97472.80;1693533;83;25127;-88
2020/12/31 08:05:57;;;;;;;;;;;;;;;2.06;78.48;97470.05;1701645;83;22128;-89
2020/12/31 08:08:43;;;;;;;;;;;;;;;2.15;78.45;97469.17;1692480;84;27008;-89
2020/12/31 08:11:29;;;;;;;;;;;;;;;2.25;78.46;97475.07;1678650;85;24627;-89
2020/12/31 08:14:15;;;;;;;;;;;;;;;2.26;78.45;97470.75;1709880;83;20540;-89
2020/12/31 08:17:07;;;;;;;;;;;;;;;2.32;78.45;97469.14;1751344;81;26040;-89
2020/12/31 08:19:53;;;;;;;;;;;;;;;2.35;78.45;97467.67;1696152;83;22131;-91
2020/12/31 08:22:39;;;;;;;;;;;;;;;2.39;78.46;97470.49;1690808;83;26083;-90
2020/12/31 08:25:25;;;;;;;;;;;;;;;2.30;78.47;97483.86;1747072;81;24681;-90
2020/12/31 08:28:12;;;;;;;;;;;;;;;2.32;78.47;97482.88;1701617;83;20365;-89
2020/12/31 08:30:58;;;;;;;;;;;;;;;2.33;78.47;97488.43;1695702;82;25951;-90
2020/12/31 08:33:44;;;;;;;;;;;;;;;2.40;78.48;97490.23;1723658;82;22116;-90
2020/12/31 08:36:31;;;;;;;;;;;;;;;2.51;78.47;97487.45;1728247;83;26966;-91
2020/12/31 08:39:18;;;;;;;;;;;;;;;2.55;78.49;97495.88;1735716;82;24617;-90
2020/12/31 08:42:04;;;;;;;;;;;;;;;2.55;78.49;97494.59;1688015;84;20360;-92
2020/12/31 08:44:51;;;;;;;;;;;;;;;2.57;78.50;97495.33;1684880;84;25133;-91
2020/12/31 08:47:37;;;;;;;;;;;;;;;2.38;78.51;97495.48;1687549;84;22118;-91
2020/12/31 08:50:23;;;;;;;;;;;;;;;2.30;78.49;97497.61;1658531;86;26219;-91
2020/12/31 08:53:09;;;;;;;;;;;;;;;2.23;78.46;97498.86;1679515;85;24809;-91
2020/12/31 08:55:56;;;;;;;;;;;;;;;2.22;78.42;97496.34;1663655;86;20343;-90
2020/12/31 08:58:43;;;;;;;;;;;;;;;2.26;78.40;97500.42;1674809;84;25129;-91
2020/12/31 09:01:29;;;;;;;;;;;;;;;2.25;78.40;97500.05;1674744;85;22152;-90
2020/12/31 09:04:16;;;;;;;;;;;;;;;2.25;78.40;97502.17;1662475;85;26145;-91
2020/12/31 09:07:03;;;;;;;;;;;;;;;2.20;78.40;97505.45;1688567;84;24610;-90
2020/12/31 09:09:48;;;;;;;;;;;;;;;2.05;78.40;97505.78;1661259;86;20355;-90
2020/12/31 09:12:35;;;;;;;;;;;;;;;2.03;78.39;97508.05;1684018;84;25921;-89
2020/12/31 09:15:21;;;;;;;;;;;;;;;1.98;78.36;97507.00;1660667;85;22158;-88
2020/12/31 09:18:07;;;;;;;;;;;;;;;2.05;78.36;97505.78;1683370;84;26180;-89
2020/12/31 09:20:53;;;;;;;;;;;;;;;2.03;78.36;97510.63;1657351;85;24646;-90
2020/12/31 09:23:39;;;;;;;;;;;;;;;1.95;78.35;97507.16;1688642;83;20215;-89
2020/12/31 09:26:27;;;;;;;;;;;;;;;2.01;78.33;97499.12;1657215;85;25101;-89
2020/12/31 09:29:13;;;;;;;;;;;;;;;2.02;78.36;97498.18;1683666;84;22139;-89
2020/12/31 09:31:59;;;;;;;;;;;;;;;2.00;78.35;97497.45;1727806;83;26147;-89
2020/12/31 09:34:46;;;;;;;;;;;;;;;1.96;78.37;97498.97;1693981;84;24702;-89
2020/12/31 09:37:20;;;;;;;;;;;;;;;1.77;78.40;97493.88;1743184;82;20527;-89
2020/12/31 09:40:07;;;;;;;;;;;;;;;1.65;78.35;97497.90;1744188;82;25234;-89
2020/12/31 09:42:53;;;;;;;;;;;;;;;1.61;78.36;97498.12;1744318;82;22993;-89
2020/12/31 09:45:41;;;;;;;;;;;;;;;1.54;78.32;97494.17;1743459;82;26382;-89
2020/12/31 09:48:27;;;;;;;;;;;;;;;1.65;78.32;97499.64;1742759;82;24632;-90
2020/12/31 09:51:14;;;;;;;;;;;;;;;1.87;78.31;97502.83;1744667;82;20257;-90
2020/12/31 09:54:00;;;;;;;;;;;;;;;2.00;78.34;97499.19;1742698;82;25351;-90
2020/12/31 09:56:46;;;;;;;;;;;;;;;1.97;78.40;97498.03;1744392;82;23054;-89
2020/12/31 09:59:33;;;;;;;;;;;;;;;1.92;78.44;97494.85;1689856;84;26139;-89
2020/12/31 10:02:24;;;;;;;;;;;;;;;1.85;78.47;97494.80;1749537;81;24181;-92
2020/12/31 10:05:09;;;;;;;;;;;;;;;1.85;78.50;97499.97;1744419;82;20303;-90
2020/12/31 10:07:43;;;;;;;;;;;;;;;1.90;78.50;97490.25;1690427;84;25119;-91
2020/12/31 10:10:29;;;;;;;;;;;;;;;1.97;78.51;97485.13;1691041;84;22145;-90
2020/12/31 10:13:15;;;;;;;;;;;;;;;2.03;78.54;97480.50;1688023;84;26094;-89
2020/12/31 10:16:01;;;;;;;;;;;;;;;2.13;78.55;97483.44;1743832;82;25727;-90
2020/12/31 10:18:47;;;;;;;;;;;;;;;2.27;78.58;97478.42;1692801;84;20273;-91
2020/12/31 10:21:21;;;;;;;;;;;;;;;2.36;78.63;97476.64;1697667;83;26083;-90
2020/12/31 10:23:55;;;;;;;;;;;;;;;2.41;78.67;97471.23;1665861;85;21529;-90
2020/12/31 10:26:44;;;;;;;;;;;;;;;2.26;78.72;97463.84;1744113;82;26419;-91
2020/12/31 10:29:30;;;;;;;;;;;;;;;2.10;78.73;97464.25;1742535;82;24611;-90
2020/12/31 10:32:18;;;;;;;;;;;;;;;2.00;78.73;97463.91;1723184;82;20264;-89
2020/12/31 10:35:04;;;;;;;;;;;;;;;2.03;78.70;97462.44;1742856;81;25132;-90
2020/12/31 10:37:50;;;;;;;;;;;;;;;2.02;78.66;97454.31;1734739;82;22167;-89
2020/12/31 10:40:36;;;;;;;;;;;;;;;2.01;78.70;97458.29;1735200;82;25978;-90
2020/12/31 10:43:23;;;;;;;;;;;;;;;1.97;78.69;97457.59;1736584;82;25552;-90
2020/12/31 10:46:09;;;;;;;;;;;;;;;1.98;78.70;97454.55;1691127;84;20297;-91
2020/12/31 10:48:55;;;;;;;;;;;;;;;1.95;78.72;97443.95;1695893;84;26003;-90
2020/12/31 10:51:41;;;;;;;;;;;;;;;2.05;78.71;97438.70;1689787;84;22175;-90
2020/12/31 10:54:27;;;;;;;;;;;;;;;2.30;78.73;97433.52;1667842;85;28321;-91
2020/12/31 10:57:13;;;;;;;;;;;;;;;2.45;78.76;97426.28;1687241;85;24694;-90
2020/12/31 11:00:03;;;;;;;;;;;;;;;2.56;78.82;97428.28;1679086;85;20353;-91
2020/12/31 11:02:51;;;;;;;;;;;;;;;2.54;78.86;97424.48;1687382;84;25142;-91
2020/12/31 11:05:37;;;;;;;;;;;;;;;2.37;78.90;97420.22;1682545;85;22108;-90
2020/12/31 11:08:23;;;;;;;;;;;;;;;2.23;78.91;97414.97;1682518;83;27074;-91
2020/12/31 11:11:09;;;;;;;;;;;;;;;2.18;78.91;97413.55;1685104;84;24609;-90
2020/12/31 11:13:55;;;;;;;;;;;;;;;2.23;78.90;97399.94;1682535;85;20270;-90
2020/12/31 11:16:43;;;;;;;;;;;;;;;2.19;78.91;97413.44;1681507;85;26138;-90
2020/12/31 11:19:29;;;;;;;;;;;;;;;2.06;78.89;97405.53;1680579;85;22037;-90
2020/12/31 11:22:16;;;;;;;;;;;;;;;2.04;78.89;97403.93;1676275;84;26212;-90
2020/12/31 11:25:02;;;;;;;;;;;;;;;2.12;78.89;97403.09;1682090;85;24861;-90
2020/12/31 11:27:48;;;;;;;;;;;;;;;2.31;78.88;97402.48;1682051;85;20267;-90
2020/12/31 11:30:34;;;;;;;;;;;;;;;2.47;78.89;97396.03;1680874;85;25112;-90
2020/12/31 11:33:21;;;;;;;;;;;;;;;2.59;78.94;97392.78;1681552;84;22210;-90
2020/12/31 11:36:07;;;;;;;;;;;;;;;2.69;79.00;97397.82;1691093;83;26366;-90
2020/12/31 11:38:53;;;;;;;;;;;;;;;2.62;79.07;97390.51;1690086;84;24009;-90
2020/12/31 11:41:39;;;;;;;;;;;;;;;2.63;79.08;97387.82;1693465;84;20277;-90
2020/12/31 11:44:25;;;;;;;;;;;;;;;2.46;79.10;97380.16;1691433;84;25117;-90
2020/12/31 11:47:11;;;;;;;;;;;;;;;2.40;79.11;97377.45;1693124;82;22348;-90
2020/12/31 11:49:58;;;;;;;;;;;;;;;2.32;79.09;97376.20;1693492;84;26212;-90
2020/12/31 11:52:44;;;;;;;;;;;;;;;2.21;79.08;97375.95;1692388;84;24747;-90
2020/12/31 11:55:30;;;;;;;;;;;;;;;2.13;79.06;97375.54;1695617;84;20281;-91
2020/12/31 11:58:16;;;;;;;;;;;;;;;1.97;79.04;97371.62;1691360;84;25191;-90
2020/12/31 12:01:02;;;;;;;;;;;;;;;1.92;79.01;97374.89;1683038;83;22092;-91
2020/12/31 12:03:49;;;;;;;;;;;;;;;1.98;78.99;97368.97;1661755;85;26282;-90
2020/12/31 12:06:39;;;;;;;;;;;;;;;2.05;79.00;97361.73;1712043;82;24613;-90
2020/12/31 12:09:24;;;;;;;;;;;;;;;2.24;79.01;97363.70;1749704;80;20357;-89
2020/12/31 12:12:11;;;;;;;;;;;;;;;2.34;79.05;97357.61;1749050;81;25143;-90
2020/12/31 12:14:57;;;;;;;;;;;;;;;2.44;79.10;97358.77;1750096;81;22214;-90
2020/12/31 12:17:44;;;;;;;;;;;;;;;2.50;79.16;97353.27;1752863;80;26160;-91
2020/12/31 12:20:30;;;;;;;;;;;;;;;2.53;79.20;97352.64;1755973;81;25445;-91
2020/12/31 12:23:19;;;;;;;;;;;;;;;2.63;79.21;97351.66;1743991;81;20274;-90
2020/12/31 12:26:05;;;;;;;;;;;;;;;2.75;79.25;97358.73;1697569;83;25168;-91
2020/12/31 12:28:56;;;;;;;;;;;;;;;2.62;79.28;97351.77;1697306;83;21970;-91
2020/12/31 12:31:44;;;;;;;;;;;;;;;2.48;79.30;97343.48;1688274;83;27063;-91
2020/12/31 12:34:31;;;;;;;;;;;;;;;2.39;79.30;97354.31;1692954;84;25501;-91
2020/12/31 12:37:18;;;;;;;;;;;;;;;2.26;79.30;97355.88;1691261;84;20205;-89
2020/12/31 12:40:04;;;;;;;;;;;;;;;2.10;79.28;97355.87;1693589;84;25274;-90
2020/12/31 12:42:50;;;;;;;;;;;;;;;1.97;79.24;97356.14;1695720;84;22144;-90
2020/12/31 12:45:36;;;;;;;;;;;;;;;1.94;79.21;97351.16;1694799;82;26140;-90
2020/12/31 12:48:09;;;;;;;;;;;;;;;1.98;79.17;97349.61;1681232;84;24614;-90
2020/12/31 12:50:55;;;;;;;;;;;;;;;1.91;79.19;97356.48;1709065;83;20265;-90
2020/12/31 12:53:42;;;;;;;;;;;;;;;1.82;79.18;97352.62;1756017;81;25210;-91
2020/12/31 12:56:28;;;;;;;;;;;;;;;1.75;79.18;97358.17;1751009;80;22098;-91
2020/12/31 12:59:14;;;;;;;;;;;;;;;1.64;79.20;97359.56;1692687;83;26133;-90
2020/12/31 13:02:00;;;;;;;;;;;;;;;1.58;79.16;97362.94;1695461;83;25233;-90
2020/12/31 13:04:35;;;;;;;;;;;;;;;1.57;79.18;97366.42;1685298;84;20348;-89
2020/12/31 13:07:21;;;;;;;;;;;;;;;1.69;79.18;97371.76;1670827;85;26010;-89
2020/12/31 13:10:07;;;;;;;;;;;;;;;1.63;79.23;97368.69;1696721;83;22319;-89
2020/12/31 13:12:54;;;;;;;;;;;;;;;1.68;79.25;97365.41;1665838;85;26209;-89
2020/12/31 13:15:41;;;;;;;;;;;;;;;1.74;79.28;97375.88;1749634;80;25144;-89
2020/12/31 13:18:27;;;;;;;;;;;;;;;1.73;79.31;97377.61;1750113;80;20333;-89
2020/12/31 13:21:13;;;;;;;;;;;;;;;1.78;79.36;97374.34;1746184;81;26185;-89
2020/12/31 13:24:01;;;;;;;;;;;;;;;1.95;79.37;97366.56;1754113;80;22171;-89
2020/12/31 13:26:47;;;;;;;;;;;;;;;1.99;79.43;97369.80;1698363;83;27101;-89
2020/12/31 13:29:35;;;;;;;;;;;;;;;1.98;79.49;97367.67;1703087;82;24647;-89
2020/12/31 13:32:21;;;;;;;;;;;;;;;1.87;79.54;97365.27;1697605;83;20494;-89
2020/12/31 13:35:11;;;;;;;;;;;;;;;1.84;79.55;97369.32;1678328;84;24457;-89
2020/12/31 13:37:57;;;;;;;;;;;;;;;1.96;79.54;97364.81;1761216;80;22335;-89
2020/12/31 13:40:43;;;;;;;;;;;;;;;1.99;79.58;97369.80;1754166;80;26111;-90
2020/12/31 13:43:31;;;;;;;;;;;;;;;1.91;79.62;97370.19;1760600;81;24869;-89
2020/12/31 13:46:17;;;;;;;;;;;;;;;1.80;79.66;97374.27;1758394;81;20560;-89
2020/12/31 13:49:03;;;;;;;;;;;;;;;1.66;79.67;97374.96;1757032;81;25177;-89
2020/12/31 13:51:49;;;;;;;;;;;;;;;1.56;79.69;97375.05;1755523;81;22235;-89
2020/12/31 13:54:35;;;;;;;;;;;;;;;1.55;79.69;97373.38;1756328;80;26338;-89
2020/12/31 13:57:22;;;;;;;;;;;;;;;1.60;79.69;97370.11;1716136;82;24491;-89
2020/12/31 14:00:08;;;;;;;;;;;;;;;1.67;79.73;97375.34;1703348;83;20540;-90
2020/12/31 14:02:54;;;;;;;;;;;;;;;1.74;79.76;97367.68;1705635;83;24888;-90
2020/12/31 14:05:41;;;;;;;;;;;;;;;1.83;79.81;97376.67;1676549;83;22211;-89
2020/12/31 14:08:26;;;;;;;;;;;;;;;1.88;79.86;97369.53;1680019;83;27055;-90
2020/12/31 14:11:13;;;;;;;;;;;;;;;1.94;79.90;97376.50;1676434;85;25641;-90
2020/12/31 14:13:59;;;;;;;;;;;;;;;1.89;79.98;97366.05;1704278;83;20283;-90
2020/12/31 14:16:45;;;;;;;;;;;;;;;1.86;80.02;97364.89;1705809;82;25016;-89
2020/12/31 14:19:31;;;;;;;;;;;;;;;1.82;80.05;97354.37;1677359;83;22167;-89
2020/12/31 14:22:18;;;;;;;;;;;;;;;1.73;80.08;97356.14;1676842;84;26148;-89
2020/12/31 14:25:04;;;;;;;;;;;;;;;1.74;80.10;97359.11;1665063;85;24737;-89
2020/12/31 14:27:52;;;;;;;;;;;;;;;1.75;80.12;97368.48;1698480;83;20367;-89
2020/12/31 14:30:38;;;;;;;;;;;;;;;1.78;80.14;97361.90;1692006;84;25146;-90
2020/12/31 14:33:24;;;;;;;;;;;;;;;1.82;80.18;97361.66;1693488;83;22207;-90
2020/12/31 14:36:11;;;;;;;;;;;;;;;1.87;80.22;97372.56;1688789;84;26209;-90